Terminal Aerodrome Forecast
Issued by NWS Omaha/Valley, NE

Home | Current Version | Previous Version | Text Only | Print | Product List | Glossary Off
Versions: 1 2 3 4 5 6 7 8 9 10 11 12 13 14 15 16 17 18 19 20 21 22 23 24 25 26 27 28 29 30 31 32 33

429
FTUS43 KOAX 261732
TAFOFK
TAF
KOFK 261732Z 2618/2718 12004KT P6SM SCT250
     FM270600 11005KT P6SM VCTS BKN050CB
      TEMPO 2706/2709 -TSRA OVC050CB
     FM270900 09005KT 3SM BR OVC005=

USA.gov is the U.S. government's official web portal to all federal, state and local government web resources and services.